Time;durP1;ratioP1;P1;durP2;ratioP2;P2;SDS_P1;SDS_P2;PMS_P1;PMS_P2;Temp;Humidity;BMP_temperature;BMP_pressure;BME280_temperature;BME280_humidity;BME280_pressure;Samples;Min_cycle;Max_cycle;Signal;HPM_P1;HPM_P2
2021/04/11 00:00:58;;;;;;;9.70;6.53;;;3.60;95.20;;;;;;5136622;27;20066;-66
2021/04/11 00:03:28;;;;;;;12.95;7.25;;;3.60;95.30;;;;;;5136397;27;20129;-66
2021/04/11 00:05:55;;;;;;;11.43;6.78;;;3.50;95.40;;;;;;5135720;27;20110;-66
2021/04/11 00:08:22;;;;;;;9.88;7.45;;;3.60;95.60;;;;;;5136589;27;20055;-67
2021/04/11 00:10:54;;;;;;;10.88;6.25;;;3.60;95.50;;;;;;5135924;27;20046;-67
2021/04/11 00:13:33;;;;;;;10.20;6.50;;;3.60;95.30;;;;;;5135105;27;20050;-67
2021/04/11 00:15:59;;;;;;;12.43;7.57;;;3.60;95.50;;;;;;5135644;27;20047;-67
2021/04/11 00:18:25;;;;;;;11.35;7.15;;;3.70;95.40;;;;;;5135806;27;20048;-67
2021/04/11 00:20:51;;;;;;;10.32;7.20;;;3.60;95.50;;;;;;5136411;27;20448;-67
2021/04/11 00:23:18;;;;;;;12.63;6.75;;;3.70;95.50;;;;;;5135726;27;20043;-67
2021/04/11 00:25:46;;;;;;;11.82;6.93;;;3.70;95.50;;;;;;5135542;27;20043;-66
2021/04/11 00:28:13;;;;;;;9.98;6.90;;;3.70;95.50;;;;;;5135802;27;20039;-67
2021/04/11 00:30:39;;;;;;;9.45;7.20;;;3.70;95.50;;;;;;5135002;27;20050;-67
2021/04/11 00:33:07;;;;;;;12.02;7.40;;;3.70;95.40;;;;;;5135822;27;20039;-67
2021/04/11 00:35:33;;;;;;;11.85;7.47;;;3.70;95.50;;;;;;5135007;27;20046;-67
2021/04/11 00:38:01;;;;;;;8.43;6.80;;;3.70;95.50;;;;;;5135362;27;20032;-67
2021/04/11 00:40:29;;;;;;;12.68;6.88;;;3.80;95.40;;;;;;5135670;27;20042;-67
2021/04/11 00:43:04;;;;;;;9.68;6.38;;;3.90;95.10;;;;;;5135658;27;20070;-67
2021/04/11 00:45:56;;;;;;;9.75;6.70;;;3.80;95.30;;;;;;5135042;27;20436;-66
2021/04/11 00:48:24;;;;;;;11.57;6.85;;;3.80;95.30;;;;;;5133537;27;20050;-66
2021/04/11 00:51:00;;;;;;;10.70;6.15;;;3.80;95.50;;;;;;5135510;27;20035;-67
2021/04/11 00:53:26;;;;;;;10.52;6.43;;;3.80;95.70;;;;;;5135065;27;20043;-67
2021/04/11 00:55:52;;;;;;;10.32;6.93;;;3.90;95.50;;;;;;5134728;27;20062;-67
2021/04/11 00:58:22;;;;;;;9.27;6.10;;;3.90;95.80;;;;;;5135236;27;20067;-67
2021/04/11 01:00:47;;;;;;;10.27;6.15;;;3.90;95.90;;;;;;5135218;27;20039;-67
2021/04/11 01:03:26;;;;;;;11.65;6.25;;;3.90;95.70;;;;;;5134887;27;20047;-67
2021/04/11 01:05:53;;;;;;;8.93;5.80;;;3.90;95.70;;;;;;5134647;27;20035;-67
2021/04/11 01:08:23;;;;;;;9.23;4.97;;;3.90;95.20;;;;;;5134836;27;20038;-67
2021/04/11 01:11:12;;;;;;;8.25;5.25;;;4.00;95.10;;;;;;5135033;27;20130;-67
2021/04/11 01:14:02;;;;;;;11.32;4.88;;;3.90;95.00;;;;;;5135121;27;20065;-67
2021/04/11 01:16:28;;;;;;;9.57;5.57;;;3.90;94.90;;;;;;5134664;27;20035;-67
2021/04/11 01:18:55;;;;;;;10.75;5.95;;;3.80;94.80;;;;;;5135182;27;20035;-67
2021/04/11 01:21:51;;;;;;;14.13;6.65;;;3.80;95.00;;;;;;5134649;27;20171;-67
2021/04/11 01:24:40;;;;;;;7.60;5.00;;;3.80;95.30;;;;;;5134964;27;20036;-67
2021/04/11 01:27:09;;;;;;;6.07;4.38;;;3.80;95.20;;;;;;5134609;27;20479;-67
2021/04/11 01:29:35;;;;;;;6.68;4.85;;;3.80;95.40;;;;;;5134529;27;20150;-67
2021/04/11 01:32:02;;;;;;;10.73;4.65;;;3.80;95.30;;;;;;5134805;27;20043;-67
2021/04/11 01:34:28;;;;;;;7.75;5.53;;;3.70;95.40;;;;;;5132885;27;20551;-67
2021/04/11 01:36:55;;;;;;;9.95;5.25;;;3.80;95.40;;;;;;5134646;27;20066;-67
2021/04/11 01:39:26;;;;;;;7.78;5.35;;;3.80;95.30;;;;;;5134628;27;20046;-67
2021/04/11 01:41:53;;;;;;;7.32;5.20;;;3.80;95.30;;;;;;5133553;27;20464;-67
2021/04/11 01:44:22;;;;;;;7.63;5.88;;;3.80;95.10;;;;;;5134272;27;20039;-67
2021/04/11 01:46:49;;;;;;;8.32;5.22;;;3.80;95.40;;;;;;5134215;27;20479;-67
2021/04/11 01:49:19;;;;;;;7.70;4.85;;;3.70;95.30;;;;;;5134178;27;20062;-67
2021/04/11 01:51:50;;;;;;;6.13;4.80;;;3.80;95.50;;;;;;5134176;27;20035;-67
2021/04/11 01:54:20;;;;;;;6.82;4.13;;;3.80;95.20;;;;;;5133002;27;20505;-67
2021/04/11 01:56:48;;;;;;;6.80;4.00;;;3.80;95.50;;;;;;5133893;27;20430;-67
2021/04/11 01:59:19;;;;;;;7.00;3.97;;;3.80;95.60;;;;;;5134290;27;20066;-67
2021/04/11 02:01:47;;;;;;;5.32;4.20;;;3.80;95.70;;;;;;5133428;28;20042;-67
2021/04/11 02:04:13;;;;;;;8.85;5.03;;;3.70;95.90;;;;;;5134612;27;20095;-67
2021/04/11 02:06:52;;;;;;;7.55;4.63;;;3.70;96.00;;;;;;5133674;27;20035;-67
2021/04/11 02:09:24;;;;;;;4.72;4.10;;;3.70;96.00;;;;;;5134653;27;20050;-67
2021/04/11 02:11:50;;;;;;;6.68;4.85;;;3.70;95.90;;;;;;5134046;27;20058;-67
2021/04/11 02:14:17;;;;;;;5.65;4.28;;;3.70;96.00;;;;;;5132909;28;20047;-68
2021/04/11 02:16:44;;;;;;;9.88;4.63;;;3.60;96.10;;;;;;5134156;27;20463;-67
2021/04/11 02:19:24;;;;;;;6.15;4.68;;;3.60;96.20;;;;;;5134388;27;20372;-67
2021/04/11 02:22:24;;;;;;;7.45;5.40;;;3.70;96.40;;;;;;5134317;27;20062;-67
2021/04/11 02:24:51;;;;;;;6.78;4.13;;;3.60;96.50;;;;;;5110882;27;20051;-67
2021/04/11 02:27:19;;;;;;;6.40;4.50;;;3.60;96.60;;;;;;5134088;27;20544;-67
2021/04/11 02:29:46;;;;;;;6.90;4.57;;;3.70;96.60;;;;;;5134111;27;20039;-67
2021/04/11 02:32:13;;;;;;;8.40;4.40;;;3.60;96.60;;;;;;5133911;27;20406;-67
2021/04/11 02:34:38;;;;;;;8.85;5.68;;;3.70;96.50;;;;;;5132499;28;20499;-67
2021/04/11 02:37:09;;;;;;;8.05;5.53;;;3.60;96.60;;;;;;5133803;27;20069;-67
2021/04/11 02:39:38;;;;;;;11.90;5.10;;;3.60;96.60;;;;;;5133964;27;20046;-67
2021/04/11 02:42:07;;;;;;;8.85;5.45;;;3.60;96.60;;;;;;5133945;27;20445;-67
2021/04/11 02:44:37;;;;;;;13.70;5.47;;;3.60;96.70;;;;;;5133391;27;20039;-67
2021/04/11 02:47:06;;;;;;;6.53;4.10;;;3.70;96.80;;;;;;5133701;27;20031;-67
2021/04/11 02:49:32;;;;;;;8.27;3.97;;;3.70;96.60;;;;;;5134119;27;20043;-67
2021/04/11 02:52:16;;;;;;;5.70;3.60;;;3.70;96.80;;;;;;5134022;27;20042;-67
2021/04/11 02:54:42;;;;;;;6.43;3.15;;;3.60;96.70;;;;;;5137174;27;20155;-67
2021/04/11 02:57:09;;;;;;;4.53;3.00;;;3.70;96.50;;;;;;5137312;27;20125;-67
2021/04/11 02:59:35;;;;;;;8.57;2.97;;;3.60;96.70;;;;;;5136408;27;20043;-67
2021/04/11 03:02:02;;;;;;;5.82;3.28;;;3.60;96.70;;;;;;5136130;27;20517;-67
2021/04/11 03:04:27;;;;;;;8.82;3.13;;;3.50;96.70;;;;;;5137124;27;20043;-67
2021/04/11 03:06:58;;;;;;;7.20;3.22;;;3.60;96.60;;;;;;5137035;27;20039;-67
2021/04/11 03:09:36;;;;;;;6.53;3.28;;;3.60;96.60;;;;;;5137294;27;20039;-67
2021/04/11 03:12:04;;;;;;;4.13;3.15;;;3.60;96.70;;;;;;5137293;27;20056;-67
2021/04/11 03:14:35;;;;;;;7.28;3.55;;;3.60;96.80;;;;;;5137168;27;20471;-67
2021/04/11 03:17:07;;;;;;;6.75;3.90;;;3.60;96.70;;;;;;5137761;27;20042;-67
2021/04/11 03:19:37;;;;;;;6.63;3.42;;;3.50;96.70;;;;;;5137100;27;20043;-67
2021/04/11 03:22:03;;;;;;;5.43;3.10;;;3.60;96.90;;;;;;5137184;27;20382;-67
2021/04/11 03:24:29;;;;;;;4.13;3.10;;;3.70;96.80;;;;;;5136620;27;20035;-67
2021/04/11 03:27:16;;;;;;;9.90;3.58;;;3.70;96.80;;;;;;5136855;27;20074;-67
2021/04/11 03:30:06;;;;;;;6.18;3.90;;;3.60;96.60;;;;;;5136810;27;20100;-67
2021/04/11 03:32:40;;;;;;;9.18;3.33;;;3.50;96.60;;;;;;5136732;27;20091;-67
2021/04/11 03:35:10;;;;;;;7.03;3.72;;;3.50;96.70;;;;;;5136467;27;20043;-67
2021/04/11 03:37:37;;;;;;;6.35;3.47;;;3.50;96.70;;;;;;5136612;27;20441;-67
2021/04/11 03:40:09;;;;;;;5.13;3.50;;;3.50;96.70;;;;;;5137149;27;20031;-67
2021/04/11 03:42:36;;;;;;;5.60;3.65;;;3.50;96.80;;;;;;5136748;27;20041;-67
2021/04/11 03:45:02;;;;;;;5.95;3.28;;;3.50;96.70;;;;;;5136250;27;20043;-67
2021/04/11 03:47:41;;;;;;;5.93;3.75;;;3.50;96.70;;;;;;5136603;27;20055;-67
2021/04/11 03:50:13;;;;;;;5.30;3.42;;;3.60;96.60;;;;;;5136735;27;20039;-67
2021/04/11 03:52:54;;;;;;;7.60;3.97;;;3.50;96.60;;;;;;5136279;27;20039;-67
2021/04/11 03:55:23;;;;;;;4.80;3.42;;;3.50;97.00;;;;;;5136126;27;20035;-67
2021/04/11 03:57:53;;;;;;;3.63;2.83;;;3.50;96.90;;;;;;5136219;27;20079;-67
2021/04/11 04:00:27;;;;;;;8.48;3.25;;;3.40;96.80;;;;;;5136210;27;20483;-67
2021/04/11 04:02:53;;;;;;;;;;;3.50;96.90;;;;;;5135489;27;20062;-67
2021/04/11 04:05:26;;;;;;;4.72;3.40;;;3.40;97.00;;;;;;5134770;27;19915;-67
2021/04/11 04:07:54;;;;;;;5.30;3.10;;;3.50;96.90;;;;;;5135886;27;20042;-67
2021/04/11 04:10:24;;;;;;;4.15;3.22;;;3.40;97.00;;;;;;5136157;27;20035;-67
2021/04/11 04:13:05;;;;;;;5.10;3.35;;;3.40;97.00;;;;;;5136181;27;20050;-67
2021/04/11 04:15:41;;;;;;;7.63;3.38;;;3.40;97.00;;;;;;5135693;27;20074;-67
2021/04/11 04:18:12;;;;;;;5.78;3.65;;;3.40;97.10;;;;;;5135929;27;20080;-67
2021/04/11 04:20:44;;;;;;;6.15;3.08;;;3.40;97.10;;;;;;5136026;27;20046;-67
2021/04/11 04:23:16;;;;;;;2.97;2.60;;;3.40;97.20;;;;;;5136125;27;20071;-67
2021/04/11 04:26:13;;;;;;;4.80;3.45;;;3.40;97.10;;;;;;5135380;27;20532;-67
2021/04/11 04:28:58;;;;;;;3.83;2.83;;;3.50;97.20;;;;;;5135648;27;20493;-67
2021/04/11 04:31:50;;;;;;;4.53;3.72;;;3.50;97.20;;;;;;5135600;27;20039;-67
2021/04/11 04:34:24;;;;;;;6.07;3.35;;;3.50;97.20;;;;;;5136245;27;20059;-67
2021/04/11 04:37:11;;;;;;;7.78;3.90;;;3.50;97.20;;;;;;5135740;27;20038;-67
2021/04/11 04:39:51;;;;;;;6.38;3.00;;;3.50;97.30;;;;;;5135798;27;20478;-67
2021/04/11 04:42:42;;;;;;;5.63;3.38;;;3.50;97.40;;;;;;5135782;27;20071;-67
2021/04/11 04:45:11;;;;;;;5.13;3.65;;;3.50;97.40;;;;;;5135225;27;20035;-67
2021/04/11 04:47:55;;;;;;;8.88;3.58;;;3.50;97.40;;;;;;5135312;27;20031;-67
2021/04/11 04:50:23;;;;;;;5.85;3.42;;;3.50;97.50;;;;;;5135521;27;20043;-67
2021/04/11 04:53:03;;;;;;;10.98;3.40;;;3.50;97.40;;;;;;5135009;27;20514;-67
2021/04/11 04:55:31;;;;;;;4.88;3.22;;;3.50;97.40;;;;;;5135085;27;20043;-67
2021/04/11 04:58:09;;;;;;;7.65;3.30;;;3.50;97.40;;;;;;5134887;27;20051;-67
2021/04/11 05:00:39;;;;;;;4.90;3.33;;;3.50;97.50;;;;;;5134991;27;20110;-67
2021/04/11 05:03:17;;;;;;;5.57;2.60;;;3.60;97.60;;;;;;5135451;27;20043;-67
2021/04/11 05:05:47;;;;;;;5.22;3.80;;;3.50;97.40;;;;;;5134506;27;20043;-67
2021/04/11 05:08:36;;;;;;;4.80;2.75;;;3.50;97.50;;;;;;5134789;27;20059;-67
2021/04/11 05:11:12;;;;;;;3.13;2.60;;;3.50;97.30;;;;;;5134890;27;20035;-67
2021/04/11 05:13:44;;;;;;;3.67;2.60;;;3.50;97.30;;;;;;5134916;27;20040;-67
2021/04/11 05:16:27;;;;;;;7.50;3.10;;;3.60;97.40;;;;;;5134488;27;20510;-67
2021/04/11 05:19:09;;;;;;;4.63;2.65;;;3.50;97.40;;;;;;5134931;27;20031;-67
2021/04/11 05:21:41;;;;;;;4.10;2.90;;;3.50;97.40;;;;;;5134808;27;20046;-67
2021/04/11 05:24:36;;;;;;;3.72;2.70;;;3.50;97.50;;;;;;5135082;27;20041;-67
2021/04/11 05:27:22;;;;;;;5.07;2.13;;;3.50;97.40;;;;;;5134876;27;20528;-67
2021/04/11 05:30:01;;;;;;;5.55;2.20;;;3.50;97.50;;;;;;5134784;27;20031;-67
2021/04/11 05:32:27;;;;;;;3.50;2.30;;;3.50;97.50;;;;;;5134677;27;20042;-67
2021/04/11 05:34:56;;;;;;;4.00;2.10;;;3.50;97.40;;;;;;5134447;27;20045;-67
2021/04/11 05:37:21;;;;;;;4.85;2.72;;;3.50;97.30;;;;;;5134377;27;20122;-67
2021/04/11 05:40:10;;;;;;;7.22;2.78;;;3.50;97.30;;;;;;5134777;27;20062;-67
2021/04/11 05:42:57;;;;;;;6.78;2.17;;;3.50;97.40;;;;;;5134305;27;20043;-67
2021/04/11 05:45:48;;;;;;;4.95;2.30;;;3.50;97.40;;;;;;5134080;27;20043;-67
2021/04/11 05:48:32;;;;;;;4.32;2.30;;;3.40;97.30;;;;;;5134405;27;20035;-67
2021/04/11 05:51:03;;;;;;;4.13;2.40;;;3.50;97.50;;;;;;5134720;27;20042;-67
2021/04/11 05:53:49;;;;;;;5.35;2.50;;;3.40;97.30;;;;;;5134452;27;20040;-67
2021/04/11 05:56:27;;;;;;;6.68;2.50;;;3.40;97.30;;;;;;5134016;27;20035;-67
2021/04/11 05:59:02;;;;;;;5.22;3.20;;;3.40;97.30;;;;;;5134473;27;20476;-67
2021/04/11 06:01:48;;;;;;;6.70;2.60;;;3.40;97.30;;;;;;5133541;28;20047;-67
2021/04/11 06:04:20;;;;;;;8.23;2.88;;;3.40;97.30;;;;;;5134583;27;20117;-67
2021/04/11 06:07:11;;;;;;;7.70;3.17;;;3.40;97.40;;;;;;5134349;27;20039;-67
2021/04/11 06:09:44;;;;;;;5.78;3.17;;;3.40;97.10;;;;;;5134407;27;20031;-67
2021/04/11 06:12:23;;;;;;;5.07;2.78;;;3.50;97.20;;;;;;5134125;27;20471;-67
2021/04/11 06:15:16;;;;;;;9.02;3.03;;;3.40;97.10;;;;;;5133883;27;20444;-67
2021/04/11 06:17:48;;;;;;;4.80;2.78;;;3.50;97.20;;;;;;5132937;28;20047;-67
2021/04/11 06:20:15;;;;;;;5.00;2.72;;;3.50;97.40;;;;;;5134156;28;20046;-67
2021/04/11 06:22:56;;;;;;;5.03;2.33;;;3.50;97.30;;;;;;5134177;27;20456;-67
2021/04/11 06:25:39;;;;;;;5.10;2.70;;;3.50;97.00;;;;;;5133702;27;20043;-67
2021/04/11 06:28:42;;;;;;;5.40;2.28;;;3.50;97.00;;;;;;5136352;27;20047;-67
2021/04/11 06:31:13;;;;;;;5.50;2.03;;;3.50;96.90;;;;;;5136313;27;20045;-67
2021/04/11 06:33:43;;;;;;;2.42;1.40;;;3.40;96.90;;;;;;5137921;27;20031;-67
2021/04/11 06:36:23;;;;;;;6.40;2.15;;;3.40;96.70;;;;;;5137843;27;20336;-67
2021/04/11 06:39:02;;;;;;;8.10;2.28;;;3.50;96.80;;;;;;5138490;27;20069;-67
2021/04/11 06:41:37;;;;;;;5.75;2.80;;;3.50;96.80;;;;;;5137905;27;20039;-67
2021/04/11 06:44:36;;;;;;;4.75;1.70;;;3.50;96.60;;;;;;5137865;27;20070;-67
2021/04/11 06:47:39;;;;;;;4.05;1.90;;;3.50;96.60;;;;;;5137845;27;20038;-67
2021/04/11 06:50:24;;;;;;;3.65;1.65;;;3.60;96.30;;;;;;5137865;27;20039;-67
2021/04/11 06:53:08;;;;;;;3.60;1.60;;;3.50;96.30;;;;;;5137983;27;20031;-67
2021/04/11 06:55:58;;;;;;;5.30;1.50;;;3.60;96.30;;;;;;5138212;27;20039;-67
2021/04/11 06:58:48;;;;;;;4.53;1.63;;;3.60;96.20;;;;;;5138540;27;20040;-67
2021/04/11 07:01:35;;;;;;;7.72;2.03;;;3.60;96.10;;;;;;5137643;27;20466;-67
2021/04/11 07:04:37;;;;;;;7.88;1.90;;;3.70;96.10;;;;;;5137873;27;20114;-67
2021/04/11 07:07:42;;;;;;;8.02;2.17;;;3.70;95.90;;;;;;5094185;28;20040;-67
2021/04/11 07:10:55;;;;;;;8.25;2.72;;;3.80;96.10;;;;;;5137356;27;20066;-67
2021/04/11 07:13:58;;;;;;;5.68;1.95;;;3.90;96.00;;;;;;5127508;27;20050;-67
2021/04/11 07:16:42;;;;;;;9.10;2.00;;;3.90;95.60;;;;;;5136866;27;20083;-67
2021/04/11 07:19:14;;;;;;;4.05;1.70;;;3.90;95.40;;;;;;5137590;27;20050;-67
2021/04/11 07:22:01;;;;;;;3.38;1.80;;;3.90;95.00;;;;;;5137385;27;20505;-67
2021/04/11 07:24:45;;;;;;;4.47;1.45;;;3.90;95.10;;;;;;5136707;27;20398;-67
2021/04/11 07:27:44;;;;;;;4.78;1.55;;;4.00;94.80;;;;;;5135664;27;20121;-66
2021/04/11 07:30:31;;;;;;;6.53;2.03;;;4.00;94.90;;;;;;5136992;27;20035;-67
2021/04/11 07:33:35;;;;;;;3.72;1.40;;;4.00;94.60;;;;;;5136938;27;20043;-67
2021/04/11 07:36:38;;;;;;;6.85;1.77;;;4.10;94.60;;;;;;5114384;27;20423;-68
2021/04/11 07:39:15;;;;;;;2.90;1.35;;;4.10;94.60;;;;;;5137054;27;20509;-67
2021/04/11 07:42:12;;;;;;;6.32;1.63;;;4.10;93.90;;;;;;5137228;27;20043;-67
2021/04/11 07:45:05;;;;;;;7.25;1.55;;;4.10;94.30;;;;;;5136229;27;20395;-68
2021/04/11 07:48:05;;;;;;;4.18;1.45;;;4.20;94.40;;;;;;5136165;27;20050;-68
2021/04/11 07:50:33;;;;;;;10.02;1.67;;;4.20;94.30;;;;;;5136766;27;20409;-67
2021/04/11 07:53:47;;;;;;;5.65;1.70;;;4.20;94.40;;;;;;5136227;27;20074;-66
2021/04/11 07:57:09;;;;;;;4.03;1.58;;;4.20;94.20;;;;;;5104097;27;20058;-67
2021/04/11 08:00:01;;;;;;;5.90;1.80;;;4.10;93.90;;;;;;5093205;28;20052;-66
2021/04/11 08:02:48;;;;;;;3.70;1.60;;;4.20;94.30;;;;;;5092777;28;20089;-66
2021/04/11 08:05:33;;;;;;;7.38;1.90;;;4.30;94.10;;;;;;5131749;27;20494;-68
2021/04/11 08:08:01;;;;;;;3.63;1.48;;;4.30;94.00;;;;;;5136139;27;20540;-66
2021/04/11 08:11:00;;;;;;;14.07;1.95;;;4.40;93.70;;;;;;5136030;27;20394;-66
2021/04/11 08:14:01;;;;;;;5.57;1.50;;;4.30;93.30;;;;;;5135936;27;20394;-66
2021/04/11 08:17:04;;;;;;;4.80;1.58;;;4.30;93.40;;;;;;5135665;27;20539;-66
2021/04/11 08:20:05;;;;;;;3.60;1.58;;;4.30;93.30;;;;;;5136572;27;20043;-67
2021/04/11 08:22:54;;;;;;;4.32;1.52;;;4.40;93.60;;;;;;5135813;27;20039;-67
2021/04/11 08:25:34;;;;;;;7.53;1.55;;;4.30;93.10;;;;;;5135494;27;20104;-67
2021/04/11 08:28:18;;;;;;;7.72;1.77;;;4.30;93.20;;;;;;5136165;27;20490;-67
2021/04/11 08:31:11;;;;;;;4.15;1.52;;;4.30;93.20;;;;;;5135636;27;20463;-67
2021/04/11 08:33:52;;;;;;;5.65;1.52;;;4.40;93.00;;;;;;5136038;27;20083;-67
2021/04/11 08:36:53;;;;;;;6.53;1.33;;;4.50;92.90;;;;;;5135438;27;20035;-67
2021/04/11 08:39:46;;;;;;;6.70;2.00;;;4.50;92.80;;;;;;5112155;27;20069;-67
2021/04/11 08:42:20;;;;;;;3.63;1.48;;;4.50;92.60;;;;;;5135436;27;20061;-67
2021/04/11 08:45:18;;;;;;;6.95;1.83;;;4.50;92.60;;;;;;5135193;27;20106;-67
2021/04/11 08:47:59;;;;;;;3.55;1.30;;;4.60;92.80;;;;;;5135268;27;20038;-67
2021/04/11 08:50:50;;;;;;;5.53;1.63;;;4.60;92.60;;;;;;5135002;27;20092;-67
2021/04/11 08:53:33;;;;;;;5.90;1.45;;;4.60;92.60;;;;;;5135175;27;20039;-67
2021/04/11 08:56:34;;;;;;;7.35;1.92;;;4.70;92.40;;;;;;5134936;27;20047;-67
2021/04/11 08:59:14;;;;;;;4.80;1.40;;;5.00;92.80;;;;;;5135062;27;20063;-67
2021/04/11 09:02:10;;;;;;;3.65;1.30;;;5.20;92.10;;;;;;5134460;27;20038;-67
2021/04/11 09:04:59;;;;;;;2.47;1.13;;;5.40;91.40;;;;;;5134869;27;20466;-67
2021/04/11 09:08:05;;;;;;;3.58;1.17;;;5.40;90.90;;;;;;5134751;27;20050;-67
2021/04/11 09:10:55;;;;;;;4.60;1.30;;;5.20;90.50;;;;;;5135042;27;20057;-67
2021/04/11 09:14:14;;;;;;;4.22;1.42;;;5.30;91.00;;;;;;5135220;27;20501;-67
2021/04/11 09:17:02;;;;;;;6.00;1.17;;;5.40;91.20;;;;;;5091469;28;20138;-68
2021/04/11 09:19:45;;;;;;;3.72;1.20;;;5.30;90.40;;;;;;5135317;27;20062;-67
2021/04/11 09:22:37;;;;;;;3.58;1.42;;;5.20;90.40;;;;;;5131610;27;20098;-67
2021/04/11 09:25:16;;;;;;;3.13;1.13;;;5.10;90.50;;;;;;5133553;27;20096;-67
2021/04/11 09:28:04;;;;;;;6.57;1.20;;;5.10;90.40;;;;;;5134602;27;20074;-67
2021/04/11 09:30:50;;;;;;;2.85;1.38;;;5.00;90.50;;;;;;5133159;27;20038;-67
2021/04/11 09:33:55;;;;;;;2.55;1.17;;;4.90;90.30;;;;;;5134457;27;20035;-66
2021/04/11 09:36:40;;;;;;;3.90;0.98;;;4.90;90.80;;;;;;5132063;27;20039;-67
2021/04/11 09:39:41;;;;;;;2.97;1.13;;;4.90;91.00;;;;;;5134204;27;20035;-67
2021/04/11 09:42:38;;;;;;;5.57;1.20;;;5.00;91.00;;;;;;5134357;27;20039;-67
2021/04/11 09:45:33;;;;;;;6.53;2.03;;;4.90;90.90;;;;;;5133933;27;20092;-67
2021/04/11 09:48:26;;;;;;;5.78;1.63;;;4.90;91.10;;;;;;5134750;27;20034;-67
2021/04/11 09:51:19;;;;;;;5.88;1.55;;;4.90;91.30;;;;;;5134365;27;20043;-67
2021/04/11 09:53:45;;;;;;;4.05;1.48;;;4.80;91.40;;;;;;5133749;27;20050;-67
2021/04/11 09:56:38;;;;;;;5.22;1.50;;;4.90;91.60;;;;;;5134177;27;20051;-67
2021/04/11 09:59:09;;;;;;;4.73;1.30;;;4.80;91.30;;;;;;5134217;27;20035;-68
2021/04/11 10:01:58;;;;;;;6.82;1.60;;;4.80;91.40;;;;;;5134047;27;20375;-67
2021/04/11 10:05:08;;;;;;;6.25;1.50;;;4.80;91.80;;;;;;5138569;27;20071;-66
2021/04/11 10:07:52;;;;;;;5.93;1.90;;;4.90;91.70;;;;;;5138239;27;20043;-67
2021/04/11 10:10:48;;;;;;;4.30;1.98;;;4.90;91.80;;;;;;5138635;27;20588;-67
2021/04/11 10:13:34;;;;;;;5.38;1.58;;;4.90;91.50;;;;;;5138452;27;20039;-67
2021/04/11 10:16:21;;;;;;;5.13;1.70;;;4.90;91.50;;;;;;5138114;27;20035;-67
2021/04/11 10:19:04;;;;;;;3.30;1.33;;;5.00;91.90;;;;;;5138113;27;20043;-67
2021/04/11 10:21:51;;;;;;;3.90;1.83;;;5.30;91.30;;;;;;5138302;27;20046;-67
2021/04/11 10:24:26;;;;;;;4.70;1.65;;;5.50;91.30;;;;;;5138538;27;20043;-67
2021/04/11 10:27:04;;;;;;;5.15;1.50;;;5.60;91.10;;;;;;5137968;27;20413;-67
2021/04/11 10:29:32;;;;;;;8.35;2.15;;;5.70;90.90;;;;;;5138220;27;20038;-67
2021/04/11 10:32:11;;;;;;;5.63;1.65;;;5.70;90.80;;;;;;5138210;27;20096;-67
2021/04/11 10:34:43;;;;;;;5.07;1.63;;;5.60;90.30;;;;;;5137677;27;20078;-68
2021/04/11 10:37:27;;;;;;;5.25;1.60;;;5.50;90.40;;;;;;5137783;27;20046;-67
2021/04/11 10:40:02;;;;;;;5.70;1.75;;;5.40;90.40;;;;;;5137884;27;20047;-67
2021/04/11 10:43:06;;;;;;;8.88;1.67;;;5.40;90.30;;;;;;5137820;27;20088;-67
2021/04/11 10:45:49;;;;;;;;;;;5.30;89.60;;;;;;5137903;27;20042;-68
2021/04/11 10:48:40;;;;;;;7.60;1.50;;;5.30;90.20;;;;;;5137934;27;19938;-67
2021/04/11 10:51:11;;;;;;;8.48;2.17;;;5.30;90.70;;;;;;5136201;27;20038;-68
2021/04/11 10:54:08;;;;;;;3.75;1.60;;;5.30;90.60;;;;;;5136088;27;20039;-66
2021/04/11 10:56:53;;;;;;;6.72;1.60;;;5.40;90.10;;;;;;5137549;27;20122;-68
2021/04/11 10:59:43;;;;;;;6.63;1.67;;;5.30;89.80;;;;;;5136736;27;20057;-68
2021/04/11 11:02:32;;;;;;;5.78;2.03;;;5.30;89.90;;;;;;5137986;27;20039;-68
2021/04/11 11:05:36;;;;;;;5.40;1.88;;;5.40;88.80;;;;;;5137240;27;20031;-68
2021/04/11 11:08:34;;;;;;;5.03;1.83;;;5.40;90.00;;;;;;5137171;27;20050;-68
2021/04/11 11:11:18;;;;;;;6.45;1.92;;;5.40;89.60;;;;;;5136282;27;20047;-68
2021/04/11 11:14:11;;;;;;;4.63;1.67;;;5.40;89.00;;;;;;5136631;27;20046;-68
2021/04/11 11:16:39;;;;;;;7.00;1.88;;;5.30;90.00;;;;;;5136550;27;20046;-68
2021/04/11 11:19:17;;;;;;;6.70;1.80;;;5.50;90.30;;;;;;5137294;27;20053;-68
2021/04/11 11:22:02;;;;;;;6.53;1.73;;;5.60;90.50;;;;;;5137118;27;20047;-68
2021/04/11 11:24:57;;;;;;;6.63;1.70;;;5.70;90.10;;;;;;5136975;27;20044;-69
2021/04/11 11:27:42;;;;;;;4.57;1.52;;;5.80;90.30;;;;;;5136711;27;20055;-68
2021/04/11 11:30:45;;;;;;;5.68;2.13;;;5.80;88.70;;;;;;5136504;27;20517;-68
2021/04/11 11:33:21;;;;;;;1.80;1.35;;;5.70;88.80;;;;;;5136684;27;20118;-68
2021/04/11 11:36:00;;;;;;;3.17;1.13;;;5.60;88.40;;;;;;5136405;27;20054;-68
2021/04/11 11:38:53;;;;;;;2.50;0.80;;;5.70;88.40;;;;;;5137280;27;20418;-68
2021/04/11 11:41:45;;;;;;;1.70;0.80;;;5.60;87.60;;;;;;5136606;27;20038;-68
2021/04/11 11:44:21;;;;;;;4.65;1.27;;;5.80;87.00;;;;;;5120076;27;20055;-68
2021/04/11 11:46:54;;;;;;;3.72;1.40;;;5.90;87.20;;;;;;5136449;27;20043;-68
2021/04/11 11:49:29;;;;;;;3.65;0.63;;;5.90;87.30;;;;;;5137031;27;20114;-67
2021/04/11 11:52:25;;;;;;;2.15;0.88;;;5.90;87.00;;;;;;5136718;27;20039;-67
2021/04/11 11:55:20;;;;;;;2.55;0.95;;;6.00;88.00;;;;;;5136569;27;20031;-68
2021/04/11 11:58:11;;;;;;;2.40;1.13;;;6.10;87.40;;;;;;5136661;27;20490;-67
2021/04/11 12:00:40;;;;;;;2.60;1.13;;;6.10;87.80;;;;;;5136951;27;20360;-68
2021/04/11 12:03:06;;;;;;;3.92;1.50;;;6.10;88.30;;;;;;5136261;27;20050;-68
2021/04/11 12:05:37;;;;;;;5.13;1.35;;;6.20;87.50;;;;;;5135978;27;20047;-67
2021/04/11 12:08:21;;;;;;;3.72;1.33;;;6.20;87.10;;;;;;5136099;27;20081;-68
2021/04/11 12:10:59;;;;;;;9.32;2.47;;;6.20;87.50;;;;;;5134963;27;20066;-68
2021/04/11 12:13:29;;;;;;;7.95;2.40;;;6.20;87.20;;;;;;5135848;27;20047;-68
2021/04/11 12:16:13;;;;;;;5.88;2.05;;;6.10;86.60;;;;;;5135510;27;20080;-68
2021/04/11 12:18:50;;;;;;;;;;;6.10;86.30;;;;;;5136643;27;20108;-68
2021/04/11 12:21:25;;;;;;;8.90;1.65;;;6.10;86.60;;;;;;5135808;27;20437;-68
2021/04/11 12:23:57;;;;;;;5.47;1.60;;;6.10;85.30;;;;;;5135989;27;20063;-68
2021/04/11 12:26:26;;;;;;;5.45;1.70;;;6.10;85.80;;;;;;5134704;27;20459;-68
2021/04/11 12:28:54;;;;;;;6.93;1.45;;;6.20;87.20;;;;;;5135525;27;20043;-68
2021/04/11 12:31:29;;;;;;;3.55;1.20;;;6.10;87.10;;;;;;5135989;27;20498;-68
2021/04/11 12:34:04;;;;;;;5.20;1.33;;;6.20;87.10;;;;;;5136065;27;20039;-68
2021/04/11 12:36:48;;;;;;;3.40;1.15;;;6.20;84.40;;;;;;5134976;27;20043;-68
2021/04/11 12:39:21;;;;;;;2.88;0.90;;;6.20;84.40;;;;;;5135839;27;20039;-68
2021/04/11 12:41:53;;;;;;;1.27;0.65;;;6.20;83.10;;;;;;5135590;27;20446;-68
2021/04/11 12:44:43;;;;;;;2.95;0.90;;;6.40;81.70;;;;;;5135713;27;20124;-68
2021/04/11 12:47:11;;;;;;;3.65;0.80;;;6.50;80.90;;;;;;5135328;27;20560;-68
2021/04/11 12:49:50;;;;;;;3.50;0.98;;;6.60;81.90;;;;;;5135400;27;20031;-67
2021/04/11 12:52:39;;;;;;;3.58;1.00;;;6.50;81.10;;;;;;5135017;27;20053;-68
2021/04/11 12:55:10;;;;;;;2.22;0.80;;;6.60;82.20;;;;;;5135158;27;20047;-68
2021/04/11 12:57:53;;;;;;;4.75;1.02;;;6.50;82.60;;;;;;5135312;27;20034;-68
2021/04/11 13:00:28;;;;;;;7.75;1.17;;;6.30;85.20;;;;;;5135482;27;20035;-68
2021/04/11 13:03:05;;;;;;;6.65;1.35;;;6.20;85.90;;;;;;5135441;27;20047;-68
2021/04/11 13:05:39;;;;;;;2.58;0.90;;;6.30;86.60;;;;;;5134766;27;20061;-68
2021/04/11 13:08:26;;;;;;;3.38;0.90;;;6.40;87.10;;;;;;5134859;27;20063;-69
2021/04/11 13:10:55;;;;;;;2.00;1.00;;;6.30;86.40;;;;;;5133927;27;20031;-68
2021/04/11 13:13:27;;;;;;;2.97;1.15;;;6.40;85.80;;;;;;5134669;27;20118;-69
2021/04/11 13:16:24;;;;;;;3.95;1.98;;;6.40;85.80;;;;;;5134291;27;20128;-69
2021/04/11 13:19:06;;;;;;;5.13;1.83;;;6.30;83.40;;;;;;5135065;27;20110;-68
2021/04/11 13:22:02;;;;;;;2.28;1.10;;;6.20;83.70;;;;;;5134932;27;20122;-68
2021/04/11 13:24:45;;;;;;;3.03;1.30;;;5.90;86.00;;;;;;5119507;27;20051;-68
2021/04/11 13:27:22;;;;;;;4.45;1.00;;;5.80;86.60;;;;;;5134888;27;20483;-67
2021/04/11 13:30:07;;;;;;;1.83;1.00;;;5.90;88.10;;;;;;5134588;27;20066;-68
2021/04/11 13:33:01;;;;;;;2.50;1.08;;;6.00;89.00;;;;;;5134338;27;20082;-68
2021/04/11 13:35:39;;;;;;;3.17;1.00;;;6.30;88.40;;;;;;5115863;27;20055;-67
2021/04/11 13:38:31;;;;;;;3.70;1.10;;;6.50;88.00;;;;;;5134729;27;20159;-68
2021/04/11 13:41:35;;;;;;;6.50;1.80;;;6.40;87.20;;;;;;5135135;27;20065;-67
2021/04/11 13:44:15;;;;;;;2.53;1.30;;;6.00;89.80;;;;;;5134622;27;20039;-67
2021/04/11 13:47:09;;;;;;;6.82;1.08;;;6.00;91.00;;;;;;5134435;27;20040;-67
2021/04/11 13:49:35;;;;;;;;;;;5.70;91.00;;;;;;5134976;27;20377;-67
2021/04/11 13:52:15;;;;;;;3.47;0.90;;;5.60;91.10;;;;;;5134306;27;20029;-67
2021/04/11 13:54:43;;;;;;;2.75;1.30;;;5.90;91.80;;;;;;5133894;27;20074;-67
2021/04/11 13:57:16;;;;;;;5.82;1.95;;;6.10;91.80;;;;;;5134122;27;20079;-68
2021/04/11 13:59:52;;;;;;;2.92;0.95;;;6.20;91.10;;;;;;5134290;27;20459;-68
2021/04/11 14:02:38;;;;;;;5.55;0.98;;;6.30;90.60;;;;;;5134214;27;20067;-67
2021/04/11 14:05:10;;;;;;;4.35;0.90;;;6.30;88.20;;;;;;5133686;27;20032;-67